AirNav   TITAN Aviation Fuels
 
 633 users online  

P19 Stellar Airpark
Chandler, Arizona, USA

GOING TO CHANDLER?


FAA INFORMATION EFFECTIVE 11 AUGUST 2022

Location

FAA Identifier: P19
Lat/Long: 33-17-55.5760N 111-54-56.8350W
33-17.926267N 111-54.947250W
33.2987711,-111.9157875
(estimated)
Elevation: 1178.5 ft. / 359.2 m (surveyed)
Variation: 13E (1980)
From city: 3 miles W of CHANDLER, AZ
Time zone: UTC -7 (year round; does not observe DST)
Zip code: 85226

Airport Operations

Airport use: Open to the public
Control tower: no
ARTCC: ALBUQUERQUE CENTER
FSS: PRESCOTT FLIGHT SERVICE STATION
NOTAMs facility: PRC (NOTAM-D service available)
Attendance: UNATNDD
Pattern altitude: 2001.5 ft. MSL
Wind indicator: yes
Segmented circle: no
Lights: DUSK-DAWN. ACTVT ACTVT REIL RWY 17 & 35; MIRL RWY 17/35 - CTAF.
Beacon: white-green (lighted land airport)
Operates sunset to sunrise.

Airport Communications

CTAF/UNICOM: 122.975
PHOENIX APPROACH: 123.7
PHOENIX DEPARTURE: 123.7
WX AWOS-3PT at CHD (6 nm E): PHONE 480-814-9952
WX ASOS at PHX (9 nm NW): PHONE 602-231-8557
WX AWOS-3 at IWA (13 nm E): 133.5 (480-988-9428)
WX ASOS at FFZ (14 nm NE): PHONE 480-641-4111
WX AWOS-3 at A39 (18 nm S): 126.900 (520-568-7704)
WX ASOS at SDL (19 nm N): PHONE 480-483-3049

Nearby radio navigation aids

VOR radial/distance  VOR name  Freq  Var
PXRr149/8.5PHOENIX VORTAC115.6012E
IWAr256/13.3WILLIE VORTAC113.3013E
TFDr347/24.8STANFIELD VORTAC114.8012E

Airport Services

Fuel available: 100LL
100LL:FOR FUEL INFO CTC FBO AT 602-793-6383.
Airframe service: MINOR
Powerplant service: MINOR
Bulk oxygen: NONE

Runway Information

Runway 17/35

Dimensions: 4417 x 80 ft. / 1346 x 24 m
Surface: asphalt, in good condition
Runway edge lights: medium intensity
RUNWAY 17  RUNWAY 35
Latitude: 33-18.290390N33-17.562150N
Longitude: 111-54.946942W111-54.947567W
Elevation: 1178.0 ft.1173.7 ft.
Traffic pattern: leftleft
Runway heading: 167 magnetic, 180 true347 magnetic, 000 true
Displaced threshold: 366 ft.349 ft.
Declared distances: LDA:4051LDA:4068
Markings: nonprecision, in good conditionnonprecision, in good condition
Visual slope indicator: 2-light PAPI on left (3.25 degrees glide path)2-light PAPI on right (3.25 degrees glide path)
Runway end identifier lights: yesyes
Touchdown point: yes, no lightsyes, no lights
Obstructions: 15 ft. road, 201 ft. from runway
RWY. 17 +8 FT. FENCE 130 FT. FROM END OF RUNWAY, +15 FT. ROADWAY 164 FT. FROM END OF RUNWAY ACROSS THRESHOLD.
12 ft. tree, 210 ft. from runway, 110 ft. left of centerline
RWY 35 +6 FT. FENCE 80 FT. FROM END OF RUNWAY ACROSS THRESHOLD, +15 FT. ROADWAY 85 FT. FROM END OF RUNWAY ACROSS THRESHOLD.

Airport Ownership and Management from official FAA records

Ownership: Privately-owned
Owner: STELLAR RUNWAY UTILIZERS ASSN, INC.
11 NORTH STELLAR PARKWAY
CHANDLER, AZ 85226
Phone 480-295-2683
Manager: BOD, STELLAR RUNWAY UTILIZERS ASSN
11 NORTH STELLAR PARKWAY
CHANDLER, AZ 85226-3715
Phone 480-295-2683

Airport Operational Statistics

Aircraft based on the field: 141
Single engine airplanes: 119
Multi engine airplanes: 4
Jet airplanes: 10
Helicopters: 4
Gliders airplanes: 1
Ultralights: 3
    
Aircraft operations: avg 110/day *
80% local general aviation
20% transient general aviation
* for 12-month period ending 14 April 2021

Additional Remarks

BE ALERT TO NUMEROUS NO RADIO AIRCRAFT INVOF ARPT.
BIRDS ON OR INVOF ARPT.
PPR FOR AIRCRAFT CERTIFICATED FOR 15000 GROSS TAKEOFF WEIGHT NOT BASED AT ARPT.
FOR CD CTC PHOENIX APCH AT 602-306-2565.
TRAINING TGL PROHIBITED. HELO TRAINING PROHIBITED.
AVOID OVERFLIGHT OF NOISE SENSITIVE AREAS WEST OF RWY 17/35 AND NORTH OF ARPT.
COMMERCIAL AND STUDENT TRAINING OPERATIONS BY PERMIT ONLY.
CALM WIND RWY 17.
FLOOD IRRIGATION BETWEEN RWY AND TWY WITH STANDING WATER UP TO 1 FT DEPTH ON IRREGULAR SCHEDULE.
ALL RUNUPS ON EAST SIDE RUNUP AREAS.

Instrument Procedures

NOTE: All procedures below are presented as PDF files. If you need a reader for these files, you should download the free Adobe Reader.

NOT FOR NAVIGATION. Please procure official charts for flight.
FAA instrument procedures published for use from 11 August 2022 at 0901Z to 08 September 2022 at 0900z.

 
STARs - Standard Terminal Arrivals
ARLIN FOUR   download (317KB)
BLYTHE FIVE   download (268KB)
SUNSS EIGHT   download (263KB)
 
IAPs - Instrument Approach Procedures
VOR-A   download (200KB)
NOTE: Special Take-Off Minimums/Departure Procedures apply   download (252KB)

Other nearby airports with instrument procedures:

KCHD - Chandler Municipal Airport (6 nm E)
KPHX - Phoenix Sky Harbor International Airport (9 nm NW)
KIWA - Phoenix-Mesa Gateway Airport (13 nm E)
KFFZ - Falcon Field Airport (14 nm NE)
KSDL - Scottsdale Airport (19 nm N)
 
Loc | Ops | Rwys | IFR | FBO | Links
Com | Nav | Svcs | Stats | Notes
Area around P19 (Stellar Airpark)
 
Road maps at: MapQuest Bing Google
 
Aerial photo
WARNING: Photo may not be current or correct
Aerial photo of P19 (Stellar Airpark)
Taken in April 2006

Do you have a better or more recent aerial photo of Stellar Airpark that you would like to share? If so, please send us your photo.

 
Sectional chart

 
Airport distance calculator
Flying to Stellar Airpark? Find the distance to fly.

From to P19

Sunrise and sunset
Times for 17-Aug-2022
 Local
(UTC-7)
 Zulu
(UTC)
Morning civil twilight05:2712:27
Sunrise05:5312:53
Sunset19:1102:11
Evening civil twilight19:3702:37

Current date and time
Zulu (UTC)  17-Aug-2022 07:36:50
Local (UTC-7)  17-Aug-2022 00:36:50
 
METAR
KCHD 
5nm E 
170247Z 22007KT 10SM SCT240 37/17 A2977
KPHX 
11nm NW 
170651Z 27012KT 10SM FEW130 SCT160 SCT210 34/18 A2978 RMK AO2 SLP062 T03440178 404060294
KIWA 
13nm E 
170547Z 27006KT 10SM CLR 33/17 A2982
KFFZ 
14nm NE 
170454Z AUTO 27008KT 10SM CLR 36/18 A2980 RMK AO2 SLP064 T03560178 TSNO
KA39 
18nm S 
170715Z AUTO 18003KT 10SM BKN110 30/19 A2987 RMK AO2
KSDL 
19nm N 
170453Z AUTO 26008KT 10SM CLR 34/18 A2983 RMK AO2 SLP069 T03440178
TAF
KPHX 
11nm NW 
170520Z 1706/1812 26008KT P6SM FEW100 SCT250 FM170900 10005KT P6SM FEW100 FEW200 FM172100 27010KT P6SM SCT100 BKN250 FM180000 03015G25KT P6SM VCTS SCT080CB BKN120 BKN250 FM180300 01010KT P6SM FEW080 SCT120 BKN250 FM180600 11008KT P6SM VCSH FEW080 SCT120 BKN250
KIWA 
13nm E 
170520Z 1706/1806 12007KT P6SM FEW120 SCT250 FM172100 28007KT P6SM SCT120 BKN250 FM180000 03015G25KT P6SM VCTS SCT080CB BKN120 BKN250 FM180300 03010KT P6SM FEW080 SCT120 BKN250 FM180500 11008KT P6SM VCSH FEW080 SCT120 BKN250 AMD LTD TO CLD VIS AND WIND TIL 171200
KSDL 
19nm N 
170520Z 1706/1806 VRB03KT P6SM FEW120 SCT250 FM172100 27009KT P6SM SCT120 BKN250 FM172300 03020G30KT P6SM VCTS SCT080CB BKN120 BKN250 FM180300 03010KT P6SM FEW080 SCT120 BKN250
NOTAMs
Click for the latest NOTAMs
NOTAMs are issued by the DoD/FAA and will open in a separate window not controlled by AirNav.

 

 
 

FBO, Fuel Providers, and Aircraft Ground Support

  
 Business Name 
 
 Contact 
 
 Services / Description 
 
Fuel Prices
 
Comments
  
 Stellar Fuel
UNICOM 122.975
602-793-6383
[email]
100 LL Available Now / Jet A+ Coming Soon

More info about Stellar Fuel
EPIC
100LL
SS $7.81 
 Updated 08-Jul-2022
 
   write
SS=Self service
Update Fuel Prices
 

Would you like to see your business listed on this page?

 If your business provides an interesting product or service to pilots, flight crews, aircraft, or users of the Stellar Airpark, you should consider listing it here.  To start the listing process, click on the button below
 
Add a business
 

Other Pages about Stellar Airpark

www.stellarairpark.org
 
Update a link
 
Copyright © AirNav, LLC. All rights reserved. Privacy Policy  Contact